Time;durP1;ratioP1;P1;durP2;ratioP2;P2;SDS_P1;SDS_P2;PMS_P1;PMS_P2;Temp;Humidity;BMP_temperature;BMP_pressure;BME280_temperature;BME280_humidity;BME280_pressure;Samples;Min_cycle;Max_cycle;Signal;HPM_P1;HPM_P2
2022/03/22 00:01:01;;;;;;;51.10;25.50;;;9.50;23.00;;;;;;5013008;28;20182;-72
2022/03/22 00:03:26;;;;;;;46.95;25.45;;;9.30;22.80;;;;;;5020219;28;20194;-72
2022/03/22 00:05:53;;;;;;;52.70;27.10;;;9.20;23.00;;;;;;5045746;28;20201;-71
2022/03/22 00:08:19;;;;;;;48.72;25.63;;;9.40;24.20;;;;;;5009608;28;20202;-71
2022/03/22 00:10:45;;;;;;;44.03;25.10;;;9.10;22.70;;;;;;5021151;28;20209;-71
2022/03/22 00:13:11;;;;;;;67.97;24.70;;;9.00;23.90;;;;;;5012868;28;20178;-71
2022/03/22 00:15:37;;;;;;;49.07;24.80;;;9.00;23.10;;;;;;5007316;28;20259;-71
2022/03/22 00:18:03;;;;;;;42.53;24.20;;;9.00;22.80;;;;;;5011733;28;20785;-72
2022/03/22 00:20:29;;;;;;;57.85;25.50;;;8.70;24.50;;;;;;5013471;28;20667;-70
2022/03/22 00:22:56;;;;;;;49.50;25.63;;;8.80;24.20;;;;;;5012813;28;20697;-71
2022/03/22 00:25:21;;;;;;;52.63;24.42;;;9.10;23.00;;;;;;5012106;28;20263;-71
2022/03/22 00:27:52;;;;;;;50.03;26.13;;;8.80;23.90;;;;;;5012061;28;20576;-71
2022/03/22 00:30:24;;;;;;;45.17;24.33;;;8.60;25.40;;;;;;5013626;28;20640;-71
2022/03/22 00:32:54;;;;;;;47.35;24.48;;;8.60;24.70;;;;;;5012522;28;20268;-71
2022/03/22 00:35:24;;;;;;;51.50;25.67;;;8.40;24.70;;;;;;5011868;28;20221;-71
2022/03/22 00:37:56;;;;;;;43.80;24.20;;;8.40;26.00;;;;;;5012132;28;20186;-71
2022/03/22 00:40:24;;;;;;;48.13;23.50;;;8.50;24.90;;;;;;5013645;28;20600;-71
2022/03/22 00:42:53;;;;;;;44.97;24.77;;;8.90;23.50;;;;;;5028410;28;20184;-71
2022/03/22 00:45:22;;;;;;;43.88;23.65;;;8.70;24.90;;;;;;5024277;28;20205;-70
2022/03/22 00:47:50;;;;;;;41.97;22.23;;;8.30;25.00;;;;;;5012031;28;20217;-71
2022/03/22 00:50:19;;;;;;;43.67;22.52;;;8.40;25.60;;;;;;5014308;28;20308;-71
2022/03/22 00:52:46;;;;;;;38.15;21.48;;;8.60;24.00;;;;;;5011815;28;20199;-71
2022/03/22 00:55:13;;;;;;;41.85;21.40;;;8.60;23.90;;;;;;5011315;28;20593;-71
2022/03/22 00:57:40;;;;;;;36.22;20.80;;;8.80;22.80;;;;;;5010107;28;20622;-71
2022/03/22 01:00:12;;;;;;;35.90;20.85;;;8.90;22.30;;;;;;5013120;28;20188;-71
2022/03/22 01:02:43;;;;;;;37.58;21.38;;;9.00;22.40;;;;;;5012237;28;20199;-71
2022/03/22 01:05:14;;;;;;;45.08;22.73;;;8.60;24.30;;;;;;5026336;28;20200;-71
2022/03/22 01:07:45;;;;;;;37.25;21.77;;;8.30;25.50;;;;;;5022626;28;20209;-71
2022/03/22 01:10:12;;;;;;;40.78;20.45;;;8.40;24.50;;;;;;5020441;28;20223;-71
2022/03/22 01:12:41;;;;;;;40.60;22.60;;;8.30;24.20;;;;;;5013008;28;20178;-71
2022/03/22 01:15:10;;;;;;;37.53;20.83;;;8.10;25.00;;;;;;5011816;28;20236;-71
2022/03/22 01:17:37;;;;;;;39.25;21.45;;;8.50;23.90;;;;;;5010877;28;20826;-71
2022/03/22 01:20:06;;;;;;;44.15;21.50;;;8.40;23.90;;;;;;5021708;28;20179;-71
2022/03/22 01:22:32;;;;;;;41.42;22.25;;;8.40;24.10;;;;;;5029633;28;20666;-71
2022/03/22 01:24:59;;;;;;;44.00;21.02;;;8.30;24.80;;;;;;5021652;28;20260;-71
2022/03/22 01:27:26;;;;;;;41.15;22.15;;;8.40;23.60;;;;;;4996633;28;20303;-71
2022/03/22 01:29:52;;;;;;;39.72;21.48;;;8.10;25.40;;;;;;5001646;28;20208;-71
2022/03/22 01:32:18;;;;;;;41.50;22.00;;;7.90;25.10;;;;;;5012619;28;20173;-71
2022/03/22 01:34:44;;;;;;;39.37;21.47;;;7.70;26.00;;;;;;5006508;28;20710;-71
2022/03/22 01:37:10;;;;;;;39.27;20.27;;;7.80;25.80;;;;;;5018828;28;20982;-71
2022/03/22 01:39:36;;;;;;;37.10;20.83;;;8.20;24.20;;;;;;5015317;28;20217;-71
2022/03/22 01:42:03;;;;;;;46.90;22.43;;;7.90;25.10;;;;;;5027913;28;20235;-71
2022/03/22 01:44:29;;;;;;;41.83;21.58;;;7.70;26.10;;;;;;5014931;28;20177;-71
2022/03/22 01:47:04;;;;;;;39.60;20.93;;;8.10;26.20;;;;;;5011426;28;20220;-71
2022/03/22 01:49:30;;;;;;;36.03;20.27;;;7.70;25.10;;;;;;5015323;28;20264;-71
2022/03/22 01:51:57;;;;;;;39.13;20.23;;;7.80;24.70;;;;;;5011465;28;20236;-71
2022/03/22 01:54:23;;;;;;;39.20;20.92;;;7.80;25.80;;;;;;5011243;28;20196;-71
2022/03/22 01:56:51;;;;;;;44.47;20.70;;;7.80;24.80;;;;;;5011399;28;20695;-71
2022/03/22 01:59:17;;;;;;;37.20;20.75;;;8.00;24.00;;;;;;5010925;28;20197;-71
2022/03/22 02:07:14;;;;;;;41.95;22.63;;;7.80;25.70;;;;;;5007301;28;20259;-72
2022/03/22 02:09:40;;;;;;;42.65;21.20;;;7.60;25.30;;;;;;5005820;28;20268;-71
2022/03/22 02:12:06;;;;;;;38.63;20.87;;;7.50;26.40;;;;;;5010354;28;20272;-71
2022/03/22 02:14:32;;;;;;;42.97;22.33;;;7.60;25.80;;;;;;5011339;28;20420;-71
2022/03/22 02:16:58;;;;;;;43.40;21.97;;;7.60;26.80;;;;;;5010414;28;20205;-71
2022/03/22 02:19:24;;;;;;;53.90;23.80;;;7.70;26.00;;;;;;5010873;28;20193;-71
2022/03/22 02:21:58;;;;;;;41.58;23.17;;;7.70;28.30;;;;;;5012704;28;20713;-71
2022/03/22 02:24:23;;;;;;;41.75;22.42;;;7.60;27.30;;;;;;5011273;28;20846;-70
2022/03/22 02:26:49;;;;;;;38.07;21.87;;;7.60;26.20;;;;;;5011070;28;20216;-71
2022/03/22 02:29:15;;;;;;;44.30;22.07;;;7.60;26.80;;;;;;5010482;28;20181;-70
2022/03/22 02:31:40;;;;;;;47.23;22.80;;;7.40;26.70;;;;;;5010867;28;20569;-71
2022/03/22 02:34:06;;;;;;;45.40;20.93;;;7.30;27.40;;;;;;5011092;28;20276;-70
2022/03/22 02:36:32;;;;;;;42.23;21.83;;;7.60;25.80;;;;;;5016865;28;20196;-70
2022/03/22 02:38:57;;;;;;;42.57;22.37;;;7.70;27.30;;;;;;5024123;28;20194;-71
2022/03/22 02:41:27;;;;;;;43.73;21.90;;;7.00;27.20;;;;;;5014922;28;20181;-71
2022/03/22 02:43:53;;;;;;;48.47;23.35;;;6.90;27.30;;;;;;5014783;28;20186;-71
2022/03/22 02:46:19;;;;;;;45.10;23.17;;;7.00;27.00;;;;;;5014096;28;20216;-71
2022/03/22 02:48:45;;;;;;;41.60;22.30;;;6.90;26.70;;;;;;5013750;28;20254;-70
2022/03/22 02:51:12;;;;;;;49.85;23.67;;;7.20;26.20;;;;;;5030447;28;20415;-71
2022/03/22 02:53:39;;;;;;;43.13;23.55;;;7.20;25.90;;;;;;5034009;28;20283;-70
2022/03/22 02:56:05;;;;;;;47.55;23.48;;;7.50;25.70;;;;;;5033881;28;20319;-70
2022/03/22 02:58:31;;;;;;;49.47;23.50;;;7.10;26.90;;;;;;5019607;28;20182;-70
2022/03/22 03:00:56;;;;;;;42.88;23.00;;;7.10;26.20;;;;;;5013482;28;20462;-71
2022/03/22 03:03:22;;;;;;;47.07;24.33;;;7.20;25.80;;;;;;5014332;28;20810;-70
2022/03/22 03:05:51;;;;;;;48.40;26.30;;;7.10;26.90;;;;;;5021974;28;20196;-70
2022/03/22 03:08:18;;;;;;;48.72;25.05;;;7.40;26.20;;;;;;5029541;28;20184;-71
2022/03/22 03:10:45;;;;;;;47.88;26.40;;;7.10;27.90;;;;;;5033712;28;20185;-70
2022/03/22 03:13:11;;;;;;;43.97;24.65;;;7.20;26.50;;;;;;5031994;28;20169;-70
2022/03/22 03:15:38;;;;;;;48.08;25.40;;;7.00;27.70;;;;;;5033536;28;20204;-71
2022/03/22 03:18:03;;;;;;;47.38;25.48;;;7.20;28.70;;;;;;5032369;28;20176;-70
2022/03/22 03:20:30;;;;;;;52.17;25.50;;;7.20;26.80;;;;;;5019904;28;20239;-71
2022/03/22 03:22:56;;;;;;;46.42;24.55;;;6.90;27.60;;;;;;5014119;28;20191;-70
2022/03/22 03:25:22;;;;;;;41.10;23.92;;;6.50;28.40;;;;;;5013808;28;20201;-70
2022/03/22 03:27:48;;;;;;;40.90;23.70;;;6.80;28.20;;;;;;5020936;28;20300;-71
2022/03/22 03:30:13;;;;;;;53.17;26.40;;;6.70;27.40;;;;;;4998719;28;20705;-70
2022/03/22 03:32:39;;;;;;;48.97;25.73;;;6.80;27.50;;;;;;5008599;28;20224;-70
2022/03/22 03:35:05;;;;;;;47.57;26.03;;;6.90;26.30;;;;;;5023873;28;20197;-70
2022/03/22 03:37:34;;;;;;;45.17;25.08;;;6.80;27.50;;;;;;5032906;28;20189;-70
2022/03/22 03:40:00;;;;;;;43.63;23.90;;;6.90;27.30;;;;;;5017884;28;20185;-71
2022/03/22 03:42:26;;;;;;;45.35;24.52;;;7.10;26.50;;;;;;5028005;28;20659;-70
2022/03/22 03:47:36;;;;;;;55.13;24.13;;;6.90;27.10;;;;;;5020196;28;20304;-70
2022/03/22 03:50:05;;;;;;;43.50;22.87;;;7.00;27.10;;;;;;5013831;28;20264;-70
2022/03/22 03:52:33;;;;;;;41.85;22.98;;;6.70;27.10;;;;;;5013542;28;20231;-70
2022/03/22 03:55:00;;;;;;;41.17;22.52;;;6.80;27.30;;;;;;5013146;28;20248;-70
2022/03/22 03:57:27;;;;;;;43.45;23.83;;;6.90;27.00;;;;;;5013099;28;20185;-70
2022/03/22 03:59:54;;;;;;;47.05;23.95;;;6.50;27.80;;;;;;5012581;28;20181;-70
2022/03/22 04:02:21;;;;;;;41.70;23.30;;;6.50;28.40;;;;;;5016866;28;20176;-70
2022/03/22 04:04:51;;;;;;;40.60;21.58;;;7.00;28.30;;;;;;5032558;28;20184;-70
2022/03/22 04:07:19;;;;;;;42.10;22.85;;;6.80;28.60;;;;;;5020133;28;20541;-70
2022/03/22 04:09:44;;;;;;;43.72;22.15;;;6.40;28.30;;;;;;5013034;28;20188;-70
2022/03/22 04:12:12;;;;;;;50.07;24.20;;;6.40;27.80;;;;;;5023189;28;20172;-70
2022/03/22 04:14:38;;;;;;;45.50;23.20;;;6.30;28.80;;;;;;5032455;28;20445;-70
2022/03/22 04:17:04;;;;;;;57.53;22.30;;;6.00;28.20;;;;;;5022220;28;20319;-70
2022/03/22 04:19:31;;;;;;;42.53;22.85;;;6.10;28.20;;;;;;5012890;28;20235;-70
2022/03/22 04:21:57;;;;;;;41.90;23.10;;;6.10;27.80;;;;;;5011710;28;20200;-71
2022/03/22 04:24:22;;;;;;;46.13;24.07;;;6.00;29.00;;;;;;5012765;28;20177;-70
2022/03/22 04:26:48;;;;;;;40.33;21.90;;;6.30;28.10;;;;;;5012736;28;20211;-70
2022/03/22 04:34:46;;;;;;;48.20;23.77;;;6.20;28.60;;;;;;5032167;28;20566;-70
2022/03/22 04:37:14;;;;;;;43.90;24.02;;;6.60;28.30;;;;;;5031984;28;20184;-71
2022/03/22 04:39:42;;;;;;;46.05;23.83;;;6.30;28.40;;;;;;5031738;28;20191;-70
2022/03/22 04:42:09;;;;;;;48.47;24.60;;;6.20;28.60;;;;;;5012447;28;20185;-70
2022/03/22 04:44:35;;;;;;;46.85;24.08;;;6.60;28.90;;;;;;5005288;28;20215;-71
2022/03/22 04:47:02;;;;;;;46.13;24.13;;;6.20;28.20;;;;;;5031504;28;20262;-70
2022/03/22 04:49:28;;;;;;;46.05;24.98;;;6.00;29.10;;;;;;5031461;28;20180;-71
2022/03/22 04:57:24;;;;;;;60.20;23.75;;;6.20;28.10;;;;;;5031614;28;20191;-70
2022/03/22 04:59:51;;;;;;;45.70;24.43;;;6.00;28.80;;;;;;5022898;28;20185;-71
2022/03/22 05:02:16;;;;;;;43.70;23.83;;;6.10;28.60;;;;;;5011751;28;20264;-70
2022/03/22 05:04:43;;;;;;;39.50;23.27;;;6.50;29.10;;;;;;5011558;28;20272;-71
2022/03/22 05:07:09;;;;;;;41.17;24.17;;;6.50;29.60;;;;;;5011852;28;20255;-70
2022/03/22 05:09:34;;;;;;;50.13;23.40;;;6.10;29.80;;;;;;5011557;28;20185;-70
2022/03/22 05:12:01;;;;;;;67.67;23.90;;;6.30;27.80;;;;;;5029500;28;20466;-70
2022/03/22 05:14:27;;;;;;;43.20;22.55;;;6.80;27.90;;;;;;5025260;28;20456;-71
2022/03/22 05:16:55;;;;;;;45.90;23.60;;;6.40;28.10;;;;;;5011815;28;20279;-70
2022/03/22 05:19:21;;;;;;;40.60;22.90;;;6.50;28.90;;;;;;5011589;28;20519;-70
2022/03/22 05:21:46;;;;;;;46.00;23.60;;;6.20;28.00;;;;;;5011873;28;20276;-70
2022/03/22 05:24:12;;;;;;;46.03;25.27;;;6.20;28.10;;;;;;5004662;28;20184;-70
2022/03/22 05:26:38;;;;;;;45.20;23.87;;;6.40;27.20;;;;;;5025513;28;20216;-70
2022/03/22 05:29:05;;;;;;;52.97;24.43;;;6.50;26.80;;;;;;5014529;28;20247;-70
2022/03/22 05:31:32;;;;;;;43.95;23.40;;;6.50;27.00;;;;;;5031400;28;20246;-71
2022/03/22 05:33:58;;;;;;;43.15;21.45;;;6.20;28.40;;;;;;5029725;28;20184;-70
2022/03/22 05:36:24;;;;;;;50.15;24.73;;;6.00;28.40;;;;;;5027413;28;20219;-70
2022/03/22 05:38:50;;;;;;;48.90;24.23;;;6.00;29.00;;;;;;5030397;28;20188;-70
2022/03/22 05:41:16;;;;;;;44.10;23.33;;;6.20;28.60;;;;;;5003938;28;20185;-70
2022/03/22 05:43:42;;;;;;;40.70;22.23;;;6.30;29.00;;;;;;5026407;28;20427;-70
2022/03/22 05:46:09;;;;;;;45.45;23.50;;;6.50;28.50;;;;;;5029146;28;20566;-70
2022/03/22 05:48:38;;;;;;;44.67;23.77;;;6.00;29.30;;;;;;5011355;28;20169;-70
2022/03/22 05:51:04;;;;;;;46.25;23.30;;;6.40;29.20;;;;;;5011365;28;20169;-70
2022/03/22 05:53:30;;;;;;;43.25;23.40;;;6.40;29.10;;;;;;5011564;28;20209;-70
2022/03/22 05:55:55;;;;;;;46.53;23.17;;;6.50;28.20;;;;;;5011830;28;20232;-70
2022/03/22 05:58:21;;;;;;;45.53;23.80;;;6.10;29.30;;;;;;5029706;28;20314;-71
2022/03/22 06:00:47;;;;;;;43.03;22.90;;;6.30;29.40;;;;;;5005619;28;20185;-69
2022/03/22 06:03:13;;;;;;;43.83;22.73;;;6.20;29.40;;;;;;5000573;28;20253;-70
2022/03/22 06:05:39;;;;;;;42.67;22.73;;;6.40;28.50;;;;;;5008202;28;20197;-70
2022/03/22 06:08:05;;;;;;;46.00;23.70;;;6.70;29.10;;;;;;5010962;28;20201;-71
2022/03/22 06:10:31;;;;;;;46.60;23.20;;;6.90;28.90;;;;;;5011139;28;20185;-70
2022/03/22 06:12:57;;;;;;;48.10;23.00;;;6.40;27.80;;;;;;5023106;28;20471;-70
2022/03/22 06:15:30;;;;;;;43.95;23.30;;;6.50;28.20;;;;;;5015189;28;20284;-70
2022/03/22 06:17:58;;;;;;;49.65;24.50;;;6.60;28.10;;;;;;5015017;28;20228;-70
2022/03/22 06:20:26;;;;;;;43.85;24.20;;;6.30;28.80;;;;;;5015135;28;20674;-70
2022/03/22 06:22:52;;;;;;;48.25;22.77;;;6.20;28.10;;;;;;5030913;28;20200;-70
2022/03/22 06:25:19;;;;;;;47.05;23.73;;;6.00;28.90;;;;;;5015888;28;21294;-70
2022/03/22 06:27:47;;;;;;;83.13;28.27;;;6.10;28.40;;;;;;5029593;28;20215;-70
2022/03/22 06:30:15;;;;;;;51.92;26.48;;;6.50;28.60;;;;;;5034478;28;20181;-70
2022/03/22 06:32:42;;;;;;;73.85;29.00;;;6.30;28.60;;;;;;5034452;28;20196;-70
2022/03/22 06:35:10;;;;;;;57.00;26.65;;;6.50;27.90;;;;;;5014268;28;20205;-70
2022/03/22 06:37:37;;;;;;;52.17;25.13;;;6.60;27.80;;;;;;5014747;28;20271;-70
2022/03/22 06:40:04;;;;;;;46.38;24.70;;;6.70;28.10;;;;;;5024505;28;20192;-70
2022/03/22 06:42:29;;;;;;;48.85;25.08;;;7.00;27.90;;;;;;5020517;28;20733;-70
2022/03/22 06:44:55;;;;;;;54.00;25.20;;;7.10;27.20;;;;;;5019098;28;20185;-74
2022/03/22 06:47:21;;;;;;;59.37;28.40;;;7.00;27.90;;;;;;5026317;28;20274;-69
2022/03/22 06:49:47;;;;;;;56.72;24.70;;;6.80;28.30;;;;;;5019845;28;20181;-76
2022/03/22 06:52:12;;;;;;;63.23;26.77;;;6.90;28.10;;;;;;5038330;28;20181;-76
2022/03/22 06:54:38;;;;;;;58.00;27.13;;;7.10;27.90;;;;;;5026176;28;20256;-69
2022/03/22 06:57:05;;;;;;;80.23;26.60;;;7.30;27.80;;;;;;5010163;28;20213;-70
2022/03/22 06:59:30;;;;;;;47.80;26.48;;;7.30;27.30;;;;;;5010777;28;20174;-70
2022/03/22 07:01:56;;;;;;;52.43;25.60;;;7.50;27.20;;;;;;5014084;28;20211;-69
2022/03/22 07:04:22;;;;;;;51.63;25.00;;;7.60;27.00;;;;;;5014080;28;20540;-70
2022/03/22 07:06:47;;;;;;;60.03;25.37;;;7.80;26.70;;;;;;5013544;28;20209;-70
2022/03/22 07:09:13;;;;;;;54.03;25.20;;;7.80;25.90;;;;;;5013852;28;20590;-69
2022/03/22 07:11:49;;;;;;;44.07;25.10;;;7.80;26.90;;;;;;5013507;28;20200;-70
2022/03/22 07:14:16;;;;;;;56.97;25.55;;;7.90;26.40;;;;;;5014325;28;20153;-69
2022/03/22 07:16:42;;;;;;;47.95;25.05;;;7.40;27.00;;;;;;5014092;28;20667;-70
2022/03/22 07:19:08;;;;;;;50.40;25.03;;;7.60;26.90;;;;;;5008461;28;20184;-70
2022/03/22 07:21:33;;;;;;;50.97;25.63;;;7.90;27.00;;;;;;5013740;28;20177;-70
2022/03/22 07:23:59;;;;;;;51.70;27.03;;;8.30;26.10;;;;;;5012378;28;20624;-70
2022/03/22 07:26:25;;;;;;;58.33;26.83;;;8.40;25.80;;;;;;5009813;28;20209;-71
2022/03/22 07:28:50;;;;;;;63.70;28.43;;;8.70;25.00;;;;;;5012933;28;20249;-71
2022/03/22 07:31:16;;;;;;;70.43;32.43;;;9.20;24.70;;;;;;5014751;28;20184;-71
2022/03/22 07:33:41;;;;;;;57.70;29.63;;;9.10;24.00;;;;;;5017479;28;20204;-69
2022/03/22 07:36:07;;;;;;;71.27;30.20;;;8.80;24.00;;;;;;5033115;28;20215;-71
2022/03/22 07:38:33;;;;;;;54.70;26.60;;;8.90;24.30;;;;;;5018184;28;20231;-70
2022/03/22 07:40:58;;;;;;;53.40;26.70;;;9.30;23.70;;;;;;5026055;28;20181;-70
2022/03/22 07:43:24;;;;;;;48.87;25.53;;;9.60;22.80;;;;;;5026936;28;20215;-71
2022/03/22 07:45:50;;;;;;;42.43;24.80;;;10.30;21.40;;;;;;5022070;28;20219;-71
2022/03/22 07:48:16;;;;;;;57.80;26.23;;;10.30;22.10;;;;;;5031363;28;20181;-71
2022/03/22 07:53:26;;;;;;;52.97;25.20;;;10.10;21.80;;;;;;5021598;28;20688;-70
2022/03/22 07:55:52;;;;;;;54.40;25.13;;;8.80;23.80;;;;;;5019705;28;20193;-71
2022/03/22 07:58:17;;;;;;;50.77;26.77;;;8.70;24.80;;;;;;5013158;28;20188;-71
2022/03/22 08:00:43;;;;;;;60.17;25.33;;;8.80;24.10;;;;;;5014596;28;20168;-70
2022/03/22 08:03:12;;;;;;;47.63;24.77;;;9.20;23.80;;;;;;5009650;28;20216;-69
2022/03/22 08:05:39;;;;;;;50.20;26.40;;;9.20;23.50;;;;;;5013372;28;20189;-70
2022/03/22 08:08:05;;;;;;;47.28;26.42;;;9.30;23.50;;;;;;5013446;28;20626;-70
2022/03/22 08:10:32;;;;;;;47.00;26.33;;;9.00;24.00;;;;;;5012943;28;20205;-70
2022/03/22 08:12:59;;;;;;;46.20;25.58;;;9.20;23.50;;;;;;5022414;28;20192;-70
2022/03/22 08:15:25;;;;;;;49.55;25.58;;;9.40;24.00;;;;;;5005059;28;20206;-70
2022/03/22 08:17:50;;;;;;;58.73;27.40;;;9.20;24.40;;;;;;5012709;28;20180;-70
2022/03/22 08:20:16;;;;;;;53.77;25.40;;;9.20;23.70;;;;;;5030056;28;20450;-70
2022/03/22 08:23:04;;;;;;;57.33;26.00;;;9.40;23.40;;;;;;5030990;28;20254;-70
2022/03/22 08:25:31;;;;;;;51.65;25.70;;;9.60;23.00;;;;;;5019192;28;20451;-70
2022/03/22 08:27:59;;;;;;;41.53;23.63;;;9.90;22.60;;;;;;5031157;28;20219;-70
2022/03/22 08:30:26;;;;;;;52.40;25.77;;;10.30;21.40;;;;;;5000466;28;20473;-70
2022/03/22 08:32:53;;;;;;;52.90;25.77;;;10.20;21.50;;;;;;5029361;28;20419;-70
2022/03/22 08:35:21;;;;;;;56.13;25.80;;;10.70;20.90;;;;;;5018644;28;20439;-70
2022/03/22 08:37:48;;;;;;;42.17;24.30;;;10.50;20.90;;;;;;5015093;28;20500;-70
2022/03/22 08:40:15;;;;;;;48.47;25.73;;;10.70;21.00;;;;;;5032120;28;20415;-72
2022/03/22 08:42:45;;;;;;;53.27;25.77;;;10.70;21.20;;;;;;5032020;28;20707;-70
2022/03/22 08:45:19;;;;;;;49.63;27.13;;;10.40;21.90;;;;;;5031861;28;20443;-70
2022/03/22 08:47:46;;;;;;;46.27;26.57;;;10.90;21.70;;;;;;5010677;28;20463;-72
2022/03/22 08:50:14;;;;;;;45.03;24.70;;;10.80;20.80;;;;;;5012881;28;20416;-72
2022/03/22 08:52:41;;;;;;;45.13;26.33;;;10.60;21.50;;;;;;5012319;28;20487;-72
2022/03/22 08:55:09;;;;;;;49.37;26.00;;;10.60;21.60;;;;;;5012212;28;20968;-70
2022/03/22 08:57:35;;;;;;;46.97;26.47;;;10.90;21.10;;;;;;5009019;28;20439;-71
2022/03/22 09:00:05;;;;;;;53.83;24.93;;;10.90;21.30;;;;;;5008751;28;20515;-71
2022/03/22 09:02:31;;;;;;;45.60;26.17;;;11.50;20.40;;;;;;5012201;28;20408;-71
2022/03/22 09:07:41;;;;;;;43.30;25.87;;;11.40;19.80;;;;;;5010835;28;20560;-72
2022/03/22 09:10:08;;;;;;;46.70;26.30;;;11.80;19.80;;;;;;5008200;28;20430;-71
2022/03/22 09:12:33;;;;;;;50.17;26.00;;;12.30;19.20;;;;;;5006065;28;20825;-71
2022/03/22 09:14:59;;;;;;;45.70;26.57;;;11.90;19.00;;;;;;5011737;28;20448;-71
2022/03/22 09:17:24;;;;;;;46.43;25.53;;;11.80;19.20;;;;;;5011720;28;20181;-71
2022/03/22 09:19:50;;;;;;;62.43;26.70;;;12.30;18.40;;;;;;5012070;28;20177;-71
2022/03/22 09:22:16;;;;;;;56.67;25.17;;;11.90;18.70;;;;;;5012396;28;20646;-71
2022/03/22 09:24:41;;;;;;;51.57;25.30;;;12.30;18.50;;;;;;5010550;28;20292;-71
2022/03/22 09:27:07;;;;;;;46.90;25.43;;;12.80;18.00;;;;;;5011432;28;20213;-71
2022/03/22 09:29:32;;;;;;;67.90;26.90;;;12.80;18.10;;;;;;5006427;28;20175;-71
2022/03/22 09:31:58;;;;;;;47.60;24.80;;;12.10;18.50;;;;;;4991993;28;20185;-71
2022/03/22 09:34:25;;;;;;;45.47;26.57;;;12.70;18.60;;;;;;4991922;28;20181;-71
2022/03/22 09:36:52;;;;;;;45.97;25.20;;;13.50;17.40;;;;;;4994824;28;20297;-71
2022/03/22 09:39:19;;;;;;;55.63;25.63;;;12.90;17.90;;;;;;5011242;28;20426;-71
2022/03/22 09:41:48;;;;;;;47.40;25.43;;;13.10;17.70;;;;;;5011333;28;20920;-71
2022/03/22 09:44:18;;;;;;;47.60;24.40;;;13.10;17.60;;;;;;5011701;28;20420;-71
2022/03/22 09:46:50;;;;;;;43.50;25.00;;;13.40;17.40;;;;;;5010913;28;20554;-71
2022/03/22 09:49:16;;;;;;;52.33;26.60;;;14.30;16.60;;;;;;5005680;28;20820;-71
2022/03/22 09:51:47;;;;;;;47.30;27.13;;;13.80;16.90;;;;;;5011510;28;20747;-71
2022/03/22 09:54:17;;;;;;;55.10;26.10;;;13.70;17.50;;;;;;5011236;28;20419;-71
2022/03/22 09:56:44;;;;;;;42.87;26.00;;;13.00;18.40;;;;;;5011200;28;20479;-71
2022/03/22 09:59:10;;;;;;;42.40;25.57;;;13.90;17.80;;;;;;5011176;28;20428;-71
2022/03/22 10:01:37;;;;;;;45.67;26.20;;;14.50;17.80;;;;;;5011142;28;20803;-71
2022/03/22 10:04:13;;;;;;;43.57;26.00;;;14.90;16.80;;;;;;5011467;28;20769;-71
2022/03/22 10:06:50;;;;;;;54.13;27.67;;;15.30;15.90;;;;;;5011176;28;20808;-71
2022/03/22 10:09:39;;;;;;;44.20;26.23;;;15.30;15.80;;;;;;5010978;28;20791;-71
2022/03/22 10:12:13;;;;;;;43.87;25.37;;;15.10;15.70;;;;;;5011106;28;20403;-71
2022/03/22 10:14:40;;;;;;;42.43;24.40;;;15.10;15.70;;;;;;5011041;28;20417;-71
2022/03/22 10:17:15;;;;;;;49.13;25.57;;;14.70;16.30;;;;;;5010951;28;20483;-71
2022/03/22 10:19:42;;;;;;;45.43;26.40;;;14.70;16.00;;;;;;5011035;28;20883;-71
2022/03/22 10:22:11;;;;;;;49.50;25.80;;;15.20;15.80;;;;;;5011308;28;20420;-72
2022/03/22 10:24:52;;;;;;;43.20;26.30;;;14.80;15.50;;;;;;5011063;28;20417;-71
2022/03/22 10:27:29;;;;;;;48.53;25.47;;;15.30;16.30;;;;;;4991324;28;20614;-71
2022/03/22 10:29:57;;;;;;;42.27;26.13;;;16.60;13.90;;;;;;4991641;28;20417;-71
2022/03/22 10:32:34;;;;;;;42.00;26.37;;;16.30;13.80;;;;;;4991428;28;20420;-71
2022/03/22 10:35:13;;;;;;;46.37;26.83;;;16.60;16.50;;;;;;4989748;28;20428;-71
2022/03/22 10:37:43;;;;;;;42.87;26.07;;;17.60;13.10;;;;;;5009292;28;20480;-71
2022/03/22 10:40:31;;;;;;;43.97;25.87;;;17.30;13.40;;;;;;5010999;28;20412;-71
2022/03/22 10:43:00;;;;;;;43.97;24.47;;;15.70;14.40;;;;;;5011089;28;20397;-71
2022/03/22 10:45:28;;;;;;;44.30;24.70;;;15.40;14.90;;;;;;5010345;28;20563;-71
2022/03/22 10:47:55;;;;;;;48.57;26.70;;;15.10;15.00;;;;;;5005757;28;20468;-71
2022/03/22 10:50:20;;;;;;;44.77;25.37;;;15.80;14.60;;;;;;4991269;28;20421;-71
2022/03/22 10:52:56;;;;;;;45.43;25.97;;;16.20;14.00;;;;;;4991072;28;20410;-71
2022/03/22 10:55:24;;;;;;;42.87;24.87;;;16.60;13.80;;;;;;4991167;28;20204;-72
2022/03/22 10:57:55;;;;;;;41.40;24.60;;;16.10;14.30;;;;;;4998540;28;20425;-69
2022/03/22 11:00:22;;;;;;;44.00;25.63;;;15.80;15.60;;;;;;5013788;28;20400;-69
2022/03/22 11:02:50;;;;;;;46.03;24.70;;;16.20;15.80;;;;;;5014358;28;20458;-69
2022/03/22 11:05:18;;;;;;;47.97;25.20;;;17.10;13.60;;;;;;5014243;28;20435;-72
2022/03/22 11:07:45;;;;;;;42.43;26.90;;;18.70;13.70;;;;;;5013660;28;20939;-72
2022/03/22 11:10:11;;;;;;;43.17;25.50;;;20.20;12.00;;;;;;5014040;28;20516;-69
2022/03/22 11:12:38;;;;;;;37.67;25.30;;;20.70;12.80;;;;;;5014140;28;20544;-70
2022/03/22 11:15:06;;;;;;;44.43;26.03;;;21.30;9.40;;;;;;5008779;28;20197;-69
2022/03/22 11:17:35;;;;;;;43.40;25.00;;;21.00;9.60;;;;;;4994299;28;20425;-69
2022/03/22 11:20:06;;;;;;;50.33;25.27;;;20.30;11.10;;;;;;4994296;28;20560;-69
2022/03/22 11:22:32;;;;;;;37.77;24.93;;;20.70;9.60;;;;;;4994398;28;20401;-71
2022/03/22 11:25:12;;;;;;;47.03;23.73;;;19.80;11.20;;;;;;4994894;28;20502;-69
2022/03/22 11:27:39;;;;;;;33.33;23.47;;;21.70;11.80;;;;;;4993685;28;20459;-69
2022/03/22 11:30:06;;;;;;;44.40;23.33;;;21.70;8.30;;;;;;4994257;28;20424;-70
2022/03/22 11:35:18;;;;;;;38.77;22.83;;;21.70;9.50;;;;;;4993789;28;20478;-69
2022/03/22 11:37:54;;;;;;;35.00;22.63;;;21.80;9.00;;;;;;5011134;28;20439;-69
2022/03/22 11:43:10;;;;;;;35.90;22.23;;;23.30;7.90;;;;;;5013548;28;20821;-69
2022/03/22 11:45:49;;;;;;;35.40;22.70;;;22.50;8.50;;;;;;5013091;28;20823;-69
2022/03/22 11:48:16;;;;;;;34.43;22.97;;;21.80;8.40;;;;;;5012489;28;20975;-70
2022/03/22 11:50:46;;;;;;;36.53;21.20;;;22.10;8.10;;;;;;5013385;28;20738;-71
2022/03/22 11:53:20;;;;;;;32.63;20.93;;;24.20;8.10;;;;;;5013363;28;20500;-69
2022/03/22 11:55:52;;;;;;;47.20;21.83;;;25.50;7.90;;;;;;5013156;28;20435;-70
2022/03/22 11:58:20;;;;;;;37.20;21.00;;;25.00;5.20;;;;;;5010345;28;20905;-70
2022/03/22 12:00:51;;;;;;;32.80;20.80;;;24.90;5.20;;;;;;5009882;28;20514;-70
2022/03/22 12:03:20;;;;;;;73.57;20.40;;;25.20;4.80;;;;;;5016514;28;20533;-71
2022/03/22 12:05:46;;;;;;;32.03;20.13;;;26.70;4.20;;;;;;5019659;28;20459;-71
2022/03/22 12:08:14;;;;;;;30.10;19.80;;;27.10;4.50;;;;;;5014778;28;20459;-72
2022/03/22 12:10:44;;;;;;;35.03;18.47;;;25.90;4.70;;;;;;5018564;28;20434;-70
2022/03/22 12:13:10;;;;;;;36.10;18.93;;;26.80;5.00;;;;;;5013739;28;20427;-70
2022/03/22 12:15:36;;;;;;;28.30;19.07;;;27.90;4.10;;;;;;5011268;28;20500;-70
2022/03/22 12:18:02;;;;;;;47.17;20.00;;;28.90;3.20;;;;;;5012590;28;20238;-71
2022/03/22 12:20:27;;;;;;;52.13;19.30;;;30.30;1.30;;;;;;5016394;28;20267;-71
2022/03/22 12:23:00;;;;;;;37.20;17.80;;;30.20;1.00;;;;;;5032371;28;20191;-70
2022/03/22 12:25:31;;;;;;;36.00;17.60;;;30.30;1.10;;;;;;5032029;28;20261;-71
2022/03/22 12:28:08;;;;;;;32.13;16.30;;;30.10;1.30;;;;;;5018200;28;20459;-70
2022/03/22 12:30:39;;;;;;;24.07;15.27;;;28.90;2.10;;;;;;5016626;28;20431;-71
2022/03/22 12:33:14;;;;;;;26.37;16.27;;;29.50;1.00;;;;;;5012888;28;20404;-70
2022/03/22 12:35:41;;;;;;;26.87;15.50;;;29.80;1.30;;;;;;5012479;28;20806;-70
2022/03/22 12:38:07;;;;;;;23.70;15.97;;;28.90;1.10;;;;;;5001162;28;20444;-70
2022/03/22 12:40:35;;;;;;;23.47;15.77;;;27.60;1.00;;;;;;5030465;28;20423;-70
2022/03/22 12:43:03;;;;;;;20.10;14.80;;;27.80;1.00;;;;;;5032032;28;20925;-70
2022/03/22 12:45:31;;;;;;;21.13;14.97;;;27.60;2.00;;;;;;5031695;28;20490;-70
2022/03/22 12:47:58;;;;;;;26.93;15.50;;;27.50;1.00;;;;;;5021173;28;20681;-71
2022/03/22 12:50:25;;;;;;;29.03;15.40;;;27.60;1.20;;;;;;5011997;28;20408;-69
2022/03/22 12:52:51;;;;;;;21.53;14.20;;;28.50;1.00;;;;;;5011896;28;20427;-71
2022/03/22 12:55:19;;;;;;;37.20;15.03;;;28.70;1.50;;;;;;5012036;28;20455;-71
2022/03/22 12:57:48;;;;;;;36.00;16.40;;;29.10;1.00;;;;;;5012794;28;21004;-70
2022/03/22 13:00:37;;;;;;;21.60;15.83;;;29.10;1.00;;;;;;5012049;28;20458;-70
2022/03/22 13:03:07;;;;;;;24.77;16.60;;;29.10;1.00;;;;;;4997006;28;20444;-71
2022/03/22 13:05:33;;;;;;;25.70;16.37;;;29.00;1.00;;;;;;5022947;28;20976;-71
2022/03/22 13:07:59;;;;;;;28.60;16.40;;;29.10;2.10;;;;;;5015346;28;20458;-71